sensor_id;sensor_type;location;lat;lon;timestamp;temperature;humidity
59309;DHT22;48433;53.016;-2.260;2023-03-04T00:06:29;6.10;99.90
59309;DHT22;48433;53.016;-2.260;2023-03-04T00:08:57;6.10;99.90
59309;DHT22;48433;53.016;-2.260;2023-03-04T00:11:24;6.10;99.90
59309;DHT22;48433;53.016;-2.260;2023-03-04T00:13:52;6.10;99.90
59309;DHT22;48433;53.016;-2.260;2023-03-04T00:16:20;6.00;99.90
59309;DHT22;48433;53.016;-2.260;2023-03-04T00:18:48;6.00;99.90
59309;DHT22;48433;53.016;-2.260;2023-03-04T00:21:16;6.00;99.90
59309;DHT22;48433;53.016;-2.260;2023-03-04T00:23:44;6.00;99.90
59309;DHT22;48433;53.016;-2.260;2023-03-04T00:26:11;6.00;99.90
59309;DHT22;48433;53.016;-2.260;2023-03-04T00:28:42;6.00;99.90
59309;DHT22;48433;53.016;-2.260;2023-03-04T00:31:10;5.90;99.90
59309;DHT22;48433;53.016;-2.260;2023-03-04T00:33:38;5.90;99.90
59309;DHT22;48433;53.016;-2.260;2023-03-04T00:36:07;5.90;99.90
59309;DHT22;48433;53.016;-2.260;2023-03-04T00:38:34;5.90;99.90
59309;DHT22;48433;53.016;-2.260;2023-03-04T00:45:58;5.90;99.90
59309;DHT22;48433;53.016;-2.260;2023-03-04T00:48:26;5.90;99.90
59309;DHT22;48433;53.016;-2.260;2023-03-04T00:50:54;5.90;99.90
59309;DHT22;48433;53.016;-2.260;2023-03-04T00:55:50;5.90;99.90
59309;DHT22;48433;53.016;-2.260;2023-03-04T00:58:17;5.90;99.90
59309;DHT22;48433;53.016;-2.260;2023-03-04T01:08:09;5.90;99.90
59309;DHT22;48433;53.016;-2.260;2023-03-04T01:15:32;5.90;99.90
59309;DHT22;48433;53.016;-2.260;2023-03-04T01:18:03;5.80;99.90
59309;DHT22;48433;53.016;-2.260;2023-03-04T01:20:30;5.80;99.90
59309;DHT22;48433;53.016;-2.260;2023-03-04T01:25:26;5.80;99.90
59309;DHT22;48433;53.016;-2.260;2023-03-04T01:27:56;5.80;99.90
59309;DHT22;48433;53.016;-2.260;2023-03-04T01:32:52;5.70;99.90
59309;DHT22;48433;53.016;-2.260;2023-03-04T01:40:18;5.70;99.90
59309;DHT22;48433;53.016;-2.260;2023-03-04T01:42:45;5.60;99.90
59309;DHT22;48433;53.016;-2.260;2023-03-04T01:45:15;5.60;99.90
59309;DHT22;48433;53.016;-2.260;2023-03-04T01:47:45;5.60;99.90
59309;DHT22;48433;53.016;-2.260;2023-03-04T01:50:28;5.60;99.90
59309;DHT22;48433;53.016;-2.260;2023-03-04T01:55:26;5.60;99.90
59309;DHT22;48433;53.016;-2.260;2023-03-04T01:57:55;5.60;99.90
59309;DHT22;48433;53.016;-2.260;2023-03-04T02:00:27;5.60;99.90
59309;DHT22;48433;53.016;-2.260;2023-03-04T02:03:09;5.60;99.90
59309;DHT22;48433;53.016;-2.260;2023-03-04T02:05:41;5.60;99.90
59309;DHT22;48433;53.016;-2.260;2023-03-04T02:08:10;5.60;99.90
59309;DHT22;48433;53.016;-2.260;2023-03-04T02:10:39;5.60;99.90
59309;DHT22;48433;53.016;-2.260;2023-03-04T02:15:36;5.50;99.90
59309;DHT22;48433;53.016;-2.260;2023-03-04T02:18:15;5.50;99.90
59309;DHT22;48433;53.016;-2.260;2023-03-04T02:26:17;5.50;99.90
59309;DHT22;48433;53.016;-2.260;2023-03-04T02:28:49;5.50;99.90
59309;DHT22;48433;53.016;-2.260;2023-03-04T02:33:57;5.50;99.90
59309;DHT22;48433;53.016;-2.260;2023-03-04T02:36:27;5.50;99.90
59309;DHT22;48433;53.016;-2.260;2023-03-04T02:39:01;5.50;99.90
59309;DHT22;48433;53.016;-2.260;2023-03-04T02:41:30;5.50;99.90
59309;DHT22;48433;53.016;-2.260;2023-03-04T02:43:59;5.50;99.90
59309;DHT22;48433;53.016;-2.260;2023-03-04T02:56:21;5.50;99.90
59309;DHT22;48433;53.016;-2.260;2023-03-04T03:06:12;5.50;99.90
59309;DHT22;48433;53.016;-2.260;2023-03-04T03:08:39;5.50;99.90
59309;DHT22;48433;53.016;-2.260;2023-03-04T03:13:36;5.40;99.90
59309;DHT22;48433;53.016;-2.260;2023-03-04T03:16:04;5.40;99.90
59309;DHT22;48433;53.016;-2.260;2023-03-04T03:18:32;5.40;99.90
59309;DHT22;48433;53.016;-2.260;2023-03-04T03:21:00;5.40;99.90
59309;DHT22;48433;53.016;-2.260;2023-03-04T03:23:28;5.40;99.90
59309;DHT22;48433;53.016;-2.260;2023-03-04T03:28:27;5.40;99.90
59309;DHT22;48433;53.016;-2.260;2023-03-04T03:30:55;5.40;99.90
59309;DHT22;48433;53.016;-2.260;2023-03-04T03:33:23;5.40;99.90
59309;DHT22;48433;53.016;-2.260;2023-03-04T03:35:50;5.40;99.90
59309;DHT22;48433;53.016;-2.260;2023-03-04T03:38:18;5.40;99.90
59309;DHT22;48433;53.016;-2.260;2023-03-04T03:40:46;5.40;99.90
59309;DHT22;48433;53.016;-2.260;2023-03-04T03:43:14;5.40;99.90
59309;DHT22;48433;53.016;-2.260;2023-03-04T03:45:42;5.40;99.90
59309;DHT22;48433;53.016;-2.260;2023-03-04T04:00:29;5.40;99.90
59309;DHT22;48433;53.016;-2.260;2023-03-04T04:02:58;5.40;99.90
59309;DHT22;48433;53.016;-2.260;2023-03-04T04:05:26;5.40;99.90
59309;DHT22;48433;53.016;-2.260;2023-03-04T04:07:54;5.40;99.90
59309;DHT22;48433;53.016;-2.260;2023-03-04T04:20:13;5.30;99.90
59309;DHT22;48433;53.016;-2.260;2023-03-04T04:22:40;5.30;99.90
59309;DHT22;48433;53.016;-2.260;2023-03-04T04:25:08;5.30;99.90
59309;DHT22;48433;53.016;-2.260;2023-03-04T04:27:37;5.30;99.90
59309;DHT22;48433;53.016;-2.260;2023-03-04T04:30:05;5.30;99.90
59309;DHT22;48433;53.016;-2.260;2023-03-04T04:35:01;5.30;99.90
59309;DHT22;48433;53.016;-2.260;2023-03-04T04:37:29;5.30;99.90
59309;DHT22;48433;53.016;-2.260;2023-03-04T04:39:56;5.30;99.90
59309;DHT22;48433;53.016;-2.260;2023-03-04T04:45:00;5.30;99.90
59309;DHT22;48433;53.016;-2.260;2023-03-04T04:47:27;5.30;99.90
59309;DHT22;48433;53.016;-2.260;2023-03-04T04:54:51;5.30;99.90
59309;DHT22;48433;53.016;-2.260;2023-03-04T04:57:18;5.30;99.90
59309;DHT22;48433;53.016;-2.260;2023-03-04T05:04:44;5.20;99.90
59309;DHT22;48433;53.016;-2.260;2023-03-04T05:12:07;5.20;99.90
59309;DHT22;48433;53.016;-2.260;2023-03-04T05:14:35;5.20;99.90
59309;DHT22;48433;53.016;-2.260;2023-03-04T05:17:03;5.20;99.90
59309;DHT22;48433;53.016;-2.260;2023-03-04T05:19:30;5.20;99.90
59309;DHT22;48433;53.016;-2.260;2023-03-04T05:21:58;5.20;99.90
59309;DHT22;48433;53.016;-2.260;2023-03-04T05:24:25;5.20;99.90
59309;DHT22;48433;53.016;-2.260;2023-03-04T05:34:17;5.20;99.90
59309;DHT22;48433;53.016;-2.260;2023-03-04T05:36:45;5.20;99.90
59309;DHT22;48433;53.016;-2.260;2023-03-04T05:51:33;5.20;99.90
59309;DHT22;48433;53.016;-2.260;2023-03-04T05:56:28;5.00;99.90
59309;DHT22;48433;53.016;-2.260;2023-03-04T05:58:58;5.20;99.90
59309;DHT22;48433;53.016;-2.260;2023-03-04T06:03:54;5.10;99.90
59309;DHT22;48433;53.016;-2.260;2023-03-04T06:06:22;5.10;99.90
59309;DHT22;48433;53.016;-2.260;2023-03-04T06:08:49;5.10;99.90
59309;DHT22;48433;53.016;-2.260;2023-03-04T06:11:17;5.00;99.90
59309;DHT22;48433;53.016;-2.260;2023-03-04T06:13:44;5.10;99.90
59309;DHT22;48433;53.016;-2.260;2023-03-04T06:18:40;5.00;99.90
59309;DHT22;48433;53.016;-2.260;2023-03-04T06:21:08;5.00;99.90
59309;DHT22;48433;53.016;-2.260;2023-03-04T06:26:04;5.00;99.90
59309;DHT22;48433;53.016;-2.260;2023-03-04T06:28:35;5.00;99.90
59309;DHT22;48433;53.016;-2.260;2023-03-04T06:31:03;4.90;99.90
59309;DHT22;48433;53.016;-2.260;2023-03-04T06:33:31;4.90;99.90
59309;DHT22;48433;53.016;-2.260;2023-03-04T06:35:58;4.90;99.90
59309;DHT22;48433;53.016;-2.260;2023-03-04T06:38:26;4.90;99.90
59309;DHT22;48433;53.016;-2.260;2023-03-04T06:40:54;4.90;99.90
59309;DHT22;48433;53.016;-2.260;2023-03-04T06:43:23;4.90;99.90
59309;DHT22;48433;53.016;-2.260;2023-03-04T06:45:51;4.90;99.90
59309;DHT22;48433;53.016;-2.260;2023-03-04T06:48:19;4.90;99.90
59309;DHT22;48433;53.016;-2.260;2023-03-04T06:50:46;4.90;99.90
59309;DHT22;48433;53.016;-2.260;2023-03-04T06:53:14;4.90;99.90
59309;DHT22;48433;53.016;-2.260;2023-03-04T06:55:42;4.90;99.90
59309;DHT22;48433;53.016;-2.260;2023-03-04T07:05:33;4.90;99.90
59309;DHT22;48433;53.016;-2.260;2023-03-04T07:08:00;4.90;99.90
59309;DHT22;48433;53.016;-2.260;2023-03-04T07:10:28;4.90;99.90
59309;DHT22;48433;53.016;-2.260;2023-03-04T07:12:56;4.90;99.90
59309;DHT22;48433;53.016;-2.260;2023-03-04T07:17:52;4.90;99.90
59309;DHT22;48433;53.016;-2.260;2023-03-04T07:30:12;5.00;99.90
59309;DHT22;48433;53.016;-2.260;2023-03-04T07:32:40;5.00;99.90
59309;DHT22;48433;53.016;-2.260;2023-03-04T07:35:08;5.00;99.90
59309;DHT22;48433;53.016;-2.260;2023-03-04T07:40:05;5.00;99.90
59309;DHT22;48433;53.016;-2.260;2023-03-04T07:42:34;5.00;99.90
59309;DHT22;48433;53.016;-2.260;2023-03-04T07:45:08;5.00;99.90
59309;DHT22;48433;53.016;-2.260;2023-03-04T07:47:37;5.00;99.90
59309;DHT22;48433;53.016;-2.260;2023-03-04T07:50:05;5.00;99.90
59309;DHT22;48433;53.016;-2.260;2023-03-04T07:52:33;5.00;99.90
59309;DHT22;48433;53.016;-2.260;2023-03-04T07:55:04;5.00;99.90
59309;DHT22;48433;53.016;-2.260;2023-03-04T07:57:32;5.00;99.90
59309;DHT22;48433;53.016;-2.260;2023-03-04T07:59:59;5.10;99.90
59309;DHT22;48433;53.016;-2.260;2023-03-04T08:12:19;5.10;99.90
59309;DHT22;48433;53.016;-2.260;2023-03-04T08:19:43;5.20;99.90
59309;DHT22;48433;53.016;-2.260;2023-03-04T08:22:11;5.20;99.90
59309;DHT22;48433;53.016;-2.260;2023-03-04T08:24:38;5.20;99.90
59309;DHT22;48433;53.016;-2.260;2023-03-04T08:29:34;5.20;99.90
59309;DHT22;48433;53.016;-2.260;2023-03-04T08:32:02;5.20;99.90
59309;DHT22;48433;53.016;-2.260;2023-03-04T08:34:30;5.30;99.90
59309;DHT22;48433;53.016;-2.260;2023-03-04T08:46:53;5.50;99.90
59309;DHT22;48433;53.016;-2.260;2023-03-04T08:49:20;5.60;99.90
59309;DHT22;48433;53.016;-2.260;2023-03-04T08:51:48;5.70;99.90
59309;DHT22;48433;53.016;-2.260;2023-03-04T09:01:40;5.80;99.90
59309;DHT22;48433;53.016;-2.260;2023-03-04T09:06:35;5.80;99.90
59309;DHT22;48433;53.016;-2.260;2023-03-04T09:21:23;6.00;99.90
59309;DHT22;48433;53.016;-2.260;2023-03-04T09:23:51;6.10;99.90
59309;DHT22;48433;53.016;-2.260;2023-03-04T09:26:24;6.00;99.90
59309;DHT22;48433;53.016;-2.260;2023-03-04T09:28:53;6.20;99.90
59309;DHT22;48433;53.016;-2.260;2023-03-04T09:33:51;6.30;99.90
59309;DHT22;48433;53.016;-2.260;2023-03-04T09:36:19;6.30;99.90
59309;DHT22;48433;53.016;-2.260;2023-03-04T09:38:47;6.30;99.90
59309;DHT22;48433;53.016;-2.260;2023-03-04T09:41:19;6.40;99.90
59309;DHT22;48433;53.016;-2.260;2023-03-04T09:43:48;6.40;99.90
59309;DHT22;48433;53.016;-2.260;2023-03-04T09:46:33;6.40;99.90
59309;DHT22;48433;53.016;-2.260;2023-03-04T09:51:47;6.50;99.90
59309;DHT22;48433;53.016;-2.260;2023-03-04T09:56:43;6.50;99.90
59309;DHT22;48433;53.016;-2.260;2023-03-04T10:01:52;6.50;99.90
59309;DHT22;48433;53.016;-2.260;2023-03-04T10:04:40;6.60;99.90
59309;DHT22;48433;53.016;-2.260;2023-03-04T10:07:25;6.60;99.90
59309;DHT22;48433;53.016;-2.260;2023-03-04T10:10:12;6.50;99.90
59309;DHT22;48433;53.016;-2.260;2023-03-04T10:12:45;6.50;99.90
59309;DHT22;48433;53.016;-2.260;2023-03-04T10:18:19;6.50;99.90
59309;DHT22;48433;53.016;-2.260;2023-03-04T10:21:07;6.50;99.90
59309;DHT22;48433;53.016;-2.260;2023-03-04T10:23:40;6.50;99.90
59309;DHT22;48433;53.016;-2.260;2023-03-04T10:26:14;6.50;99.90
59309;DHT22;48433;53.016;-2.260;2023-03-04T10:31:32;6.60;99.90
59309;DHT22;48433;53.016;-2.260;2023-03-04T10:34:04;6.60;99.90
59309;DHT22;48433;53.016;-2.260;2023-03-04T10:36:38;6.60;99.90
59309;DHT22;48433;53.016;-2.260;2023-03-04T10:39:11;6.60;99.90
59309;DHT22;48433;53.016;-2.260;2023-03-04T10:41:45;6.70;99.90
59309;DHT22;48433;53.016;-2.260;2023-03-04T10:44:20;6.70;99.90
59309;DHT22;48433;53.016;-2.260;2023-03-04T10:46:48;6.70;99.90
59309;DHT22;48433;53.016;-2.260;2023-03-04T10:49:18;6.70;99.90
59309;DHT22;48433;53.016;-2.260;2023-03-04T10:51:59;6.80;99.90
59309;DHT22;48433;53.016;-2.260;2023-03-04T10:54:29;6.80;99.90
59309;DHT22;48433;53.016;-2.260;2023-03-04T10:57:43;6.90;99.90
59309;DHT22;48433;53.016;-2.260;2023-03-04T10:59:47;6.90;99.90
59309;DHT22;48433;53.016;-2.260;2023-03-04T11:02:29;6.90;99.90
59309;DHT22;48433;53.016;-2.260;2023-03-04T11:05:23;7.00;99.90
59309;DHT22;48433;53.016;-2.260;2023-03-04T11:07:57;7.00;99.90
59309;DHT22;48433;53.016;-2.260;2023-03-04T11:13:00;7.10;99.90
59309;DHT22;48433;53.016;-2.260;2023-03-04T11:15:58;7.10;99.90
59309;DHT22;48433;53.016;-2.260;2023-03-04T11:21:05;7.10;99.90
59309;DHT22;48433;53.016;-2.260;2023-03-04T11:23:42;7.20;99.90
59309;DHT22;48433;53.016;-2.260;2023-03-04T11:26:17;7.20;99.90
59309;DHT22;48433;53.016;-2.260;2023-03-04T11:31:47;7.20;99.90
59309;DHT22;48433;53.016;-2.260;2023-03-04T11:40:11;7.10;99.90
59309;DHT22;48433;53.016;-2.260;2023-03-04T11:42:57;7.10;99.90
59309;DHT22;48433;53.016;-2.260;2023-03-04T11:45:48;7.00;99.90
59309;DHT22;48433;53.016;-2.260;2023-03-04T11:51:43;7.00;99.90
59309;DHT22;48433;53.016;-2.260;2023-03-04T11:54:40;7.00;99.90
59309;DHT22;48433;53.016;-2.260;2023-03-04T12:00:00;7.00;99.90
59309;DHT22;48433;53.016;-2.260;2023-03-04T12:06:02;7.00;99.90
59309;DHT22;48433;53.016;-2.260;2023-03-04T12:09:07;7.00;99.90
59309;DHT22;48433;53.016;-2.260;2023-03-04T12:11:58;7.00;99.90
59309;DHT22;48433;53.016;-2.260;2023-03-04T12:17:53;7.10;99.90
59309;DHT22;48433;53.016;-2.260;2023-03-04T12:22:52;7.20;99.90
59309;DHT22;48433;53.016;-2.260;2023-03-04T12:39:25;7.40;99.90
59309;DHT22;48433;53.016;-2.260;2023-03-04T12:48:31;7.30;99.90
59309;DHT22;48433;53.016;-2.260;2023-03-04T12:54:15;7.30;99.90
59309;DHT22;48433;53.016;-2.260;2023-03-04T12:56:55;7.30;99.90
59309;DHT22;48433;53.016;-2.260;2023-03-04T12:59:25;7.30;99.90
59309;DHT22;48433;53.016;-2.260;2023-03-04T13:08:00;7.30;99.90
59309;DHT22;48433;53.016;-2.260;2023-03-04T13:10:29;7.20;99.90
59309;DHT22;48433;53.016;-2.260;2023-03-04T13:12:58;7.30;99.90
59309;DHT22;48433;53.016;-2.260;2023-03-04T13:15:35;7.30;99.90
59309;DHT22;48433;53.016;-2.260;2023-03-04T13:21:21;7.30;99.90
59309;DHT22;48433;53.016;-2.260;2023-03-04T13:23:50;7.30;99.90
59309;DHT22;48433;53.016;-2.260;2023-03-04T13:26:49;7.20;99.90
59309;DHT22;48433;53.016;-2.260;2023-03-04T13:34:44;7.20;99.90
59309;DHT22;48433;53.016;-2.260;2023-03-04T13:37:30;7.30;99.90
59309;DHT22;48433;53.016;-2.260;2023-03-04T13:40:36;7.20;99.90
59309;DHT22;48433;53.016;-2.260;2023-03-04T13:59:49;7.30;99.90
59309;DHT22;48433;53.016;-2.260;2023-03-04T14:02:24;7.30;99.90
59309;DHT22;48433;53.016;-2.260;2023-03-04T14:07:25;7.40;99.90
59309;DHT22;48433;53.016;-2.260;2023-03-04T14:12:25;7.50;99.90
59309;DHT22;48433;53.016;-2.260;2023-03-04T14:14:56;7.50;99.90
59309;DHT22;48433;53.016;-2.260;2023-03-04T14:17:34;7.50;99.90
59309;DHT22;48433;53.016;-2.260;2023-03-04T14:20:06;7.50;99.90
59309;DHT22;48433;53.016;-2.260;2023-03-04T14:22:47;7.50;99.90
59309;DHT22;48433;53.016;-2.260;2023-03-04T14:27:49;7.50;99.90
59309;DHT22;48433;53.016;-2.260;2023-03-04T14:30:28;7.50;99.90
59309;DHT22;48433;53.016;-2.260;2023-03-04T14:33:24;7.30;99.90
59309;DHT22;48433;53.016;-2.260;2023-03-04T14:35:59;7.30;99.90
59309;DHT22;48433;53.016;-2.260;2023-03-04T14:38:36;7.30;99.90
59309;DHT22;48433;53.016;-2.260;2023-03-04T14:41:14;7.30;99.90
59309;DHT22;48433;53.016;-2.260;2023-03-04T14:43:51;7.30;99.90
59309;DHT22;48433;53.016;-2.260;2023-03-04T14:46:21;7.30;99.90
59309;DHT22;48433;53.016;-2.260;2023-03-04T14:48:52;7.30;99.90
59309;DHT22;48433;53.016;-2.260;2023-03-04T14:53:59;7.30;99.90
59309;DHT22;48433;53.016;-2.260;2023-03-04T14:56:32;7.30;99.90
59309;DHT22;48433;53.016;-2.260;2023-03-04T14:59:00;7.30;99.90
59309;DHT22;48433;53.016;-2.260;2023-03-04T15:01:29;7.30;99.90
59309;DHT22;48433;53.016;-2.260;2023-03-04T15:04:09;7.30;99.90
59309;DHT22;48433;53.016;-2.260;2023-03-04T15:06:49;7.30;99.90
59309;DHT22;48433;53.016;-2.260;2023-03-04T15:09:23;7.30;99.90
59309;DHT22;48433;53.016;-2.260;2023-03-04T15:11:57;7.20;99.90
59309;DHT22;48433;53.016;-2.260;2023-03-04T15:14:46;7.20;99.90
59309;DHT22;48433;53.016;-2.260;2023-03-04T15:17:37;7.20;99.90
59309;DHT22;48433;53.016;-2.260;2023-03-04T15:22:36;7.20;99.90
59309;DHT22;48433;53.016;-2.260;2023-03-04T15:25:22;7.10;99.90
59309;DHT22;48433;53.016;-2.260;2023-03-04T15:27:50;7.10;99.90
59309;DHT22;48433;53.016;-2.260;2023-03-04T15:30:21;7.10;99.90
59309;DHT22;48433;53.016;-2.260;2023-03-04T15:32:50;7.00;99.90
59309;DHT22;48433;53.016;-2.260;2023-03-04T15:35:18;7.00;99.90
59309;DHT22;48433;53.016;-2.260;2023-03-04T15:37:47;7.00;99.90
59309;DHT22;48433;53.016;-2.260;2023-03-04T15:40:36;6.90;99.90
59309;DHT22;48433;53.016;-2.260;2023-03-04T15:43:19;6.90;99.90
59309;DHT22;48433;53.016;-2.260;2023-03-04T15:45:49;6.90;99.90
59309;DHT22;48433;53.016;-2.260;2023-03-04T15:48:18;6.90;99.90
59309;DHT22;48433;53.016;-2.260;2023-03-04T15:50:57;6.90;99.90
59309;DHT22;48433;53.016;-2.260;2023-03-04T15:53:35;6.80;99.90
59309;DHT22;48433;53.016;-2.260;2023-03-04T15:56:07;6.80;99.90
59309;DHT22;48433;53.016;-2.260;2023-03-04T15:58:35;6.80;99.90
59309;DHT22;48433;53.016;-2.260;2023-03-04T16:01:03;6.70;99.90
59309;DHT22;48433;53.016;-2.260;2023-03-04T16:03:30;6.70;99.90
59309;DHT22;48433;53.016;-2.260;2023-03-04T16:05:58;6.60;99.90
59309;DHT22;48433;53.016;-2.260;2023-03-04T16:08:26;6.70;99.90
59309;DHT22;48433;53.016;-2.260;2023-03-04T16:10:54;6.60;99.90
59309;DHT22;48433;53.016;-2.260;2023-03-04T16:13:22;6.50;99.90
59309;DHT22;48433;53.016;-2.260;2023-03-04T16:15:51;6.50;99.90
59309;DHT22;48433;53.016;-2.260;2023-03-04T16:18:19;6.50;99.90
59309;DHT22;48433;53.016;-2.260;2023-03-04T16:20:47;6.40;99.90
59309;DHT22;48433;53.016;-2.260;2023-03-04T16:23:22;6.40;99.90
59309;DHT22;48433;53.016;-2.260;2023-03-04T16:25:53;6.40;99.90
59309;DHT22;48433;53.016;-2.260;2023-03-04T16:28:22;6.40;99.90
59309;DHT22;48433;53.016;-2.260;2023-03-04T16:30:49;6.40;99.90
59309;DHT22;48433;53.016;-2.260;2023-03-04T16:33:17;6.30;99.90
59309;DHT22;48433;53.016;-2.260;2023-03-04T16:35:45;6.40;99.90
59309;DHT22;48433;53.016;-2.260;2023-03-04T16:38:23;6.40;99.90
59309;DHT22;48433;53.016;-2.260;2023-03-04T16:40:54;6.30;99.90
59309;DHT22;48433;53.016;-2.260;2023-03-04T16:43:22;6.30;99.90
59309;DHT22;48433;53.016;-2.260;2023-03-04T16:45:50;6.30;99.90
59309;DHT22;48433;53.016;-2.260;2023-03-04T16:48:18;6.30;99.90
59309;DHT22;48433;53.016;-2.260;2023-03-04T16:50:46;6.30;99.90
59309;DHT22;48433;53.016;-2.260;2023-03-04T16:58:19;6.20;99.90
59309;DHT22;48433;53.016;-2.260;2023-03-04T17:00:47;6.10;99.90
59309;DHT22;48433;53.016;-2.260;2023-03-04T17:03:14;6.10;99.90
59309;DHT22;48433;53.016;-2.260;2023-03-04T17:10:38;6.10;99.90
59309;DHT22;48433;53.016;-2.260;2023-03-04T17:15:35;6.00;99.90
59309;DHT22;48433;53.016;-2.260;2023-03-04T17:20:30;6.00;99.90
59309;DHT22;48433;53.016;-2.260;2023-03-04T17:27:54;5.90;99.90
59309;DHT22;48433;53.016;-2.260;2023-03-04T17:30:22;5.90;99.90
59309;DHT22;48433;53.016;-2.260;2023-03-04T17:32:49;5.80;99.90
59309;DHT22;48433;53.016;-2.260;2023-03-04T17:35:17;5.80;99.90
59309;DHT22;48433;53.016;-2.260;2023-03-04T17:37:45;5.80;99.90
59309;DHT22;48433;53.016;-2.260;2023-03-04T17:40:12;5.80;99.90
59309;DHT22;48433;53.016;-2.260;2023-03-04T17:42:41;5.80;99.90
59309;DHT22;48433;53.016;-2.260;2023-03-04T17:45:10;5.70;99.90
59309;DHT22;48433;53.016;-2.260;2023-03-04T17:47:38;5.70;99.90
59309;DHT22;48433;53.016;-2.260;2023-03-04T17:50:07;5.70;99.90
59309;DHT22;48433;53.016;-2.260;2023-03-04T17:52:35;5.70;99.90
59309;DHT22;48433;53.016;-2.260;2023-03-04T17:55:03;5.70;99.90
59309;DHT22;48433;53.016;-2.260;2023-03-04T17:57:30;5.60;99.90
59309;DHT22;48433;53.016;-2.260;2023-03-04T17:59:58;5.60;99.90
59309;DHT22;48433;53.016;-2.260;2023-03-04T18:07:21;5.60;99.90
59309;DHT22;48433;53.016;-2.260;2023-03-04T18:09:49;5.60;99.90
59309;DHT22;48433;53.016;-2.260;2023-03-04T18:12:17;5.50;99.90
59309;DHT22;48433;53.016;-2.260;2023-03-04T18:14:44;5.50;99.90
59309;DHT22;48433;53.016;-2.260;2023-03-04T18:17:12;5.50;99.90
59309;DHT22;48433;53.016;-2.260;2023-03-04T18:22:07;5.50;99.90
59309;DHT22;48433;53.016;-2.260;2023-03-04T18:24:35;5.40;99.90
59309;DHT22;48433;53.016;-2.260;2023-03-04T18:27:06;5.40;99.90
59309;DHT22;48433;53.016;-2.260;2023-03-04T18:29:33;5.40;99.90
59309;DHT22;48433;53.016;-2.260;2023-03-04T18:32:01;5.30;99.90
59309;DHT22;48433;53.016;-2.260;2023-03-04T18:34:29;5.30;99.90
59309;DHT22;48433;53.016;-2.260;2023-03-04T18:36:56;5.30;99.90
59309;DHT22;48433;53.016;-2.260;2023-03-04T18:39:24;5.30;99.90
59309;DHT22;48433;53.016;-2.260;2023-03-04T18:41:51;5.30;99.90
59309;DHT22;48433;53.016;-2.260;2023-03-04T18:44:19;5.20;99.90
59309;DHT22;48433;53.016;-2.260;2023-03-04T18:46:49;5.20;99.90
59309;DHT22;48433;53.016;-2.260;2023-03-04T18:49:19;5.20;99.90
59309;DHT22;48433;53.016;-2.260;2023-03-04T18:51:47;5.20;99.90
59309;DHT22;48433;53.016;-2.260;2023-03-04T18:54:15;5.20;99.90
59309;DHT22;48433;53.016;-2.260;2023-03-04T18:56:55;5.20;99.90
59309;DHT22;48433;53.016;-2.260;2023-03-04T18:59:32;5.20;99.90
59309;DHT22;48433;53.016;-2.260;2023-03-04T19:02:09;5.20;99.90
59309;DHT22;48433;53.016;-2.260;2023-03-04T19:04:39;5.20;99.90
59309;DHT22;48433;53.016;-2.260;2023-03-04T19:07:07;5.00;99.90
59309;DHT22;48433;53.016;-2.260;2023-03-04T19:09:35;5.10;99.90
59309;DHT22;48433;53.016;-2.260;2023-03-04T19:12:02;5.10;99.90
59309;DHT22;48433;53.016;-2.260;2023-03-04T19:14:32;5.10;99.90
59309;DHT22;48433;53.016;-2.260;2023-03-04T19:17:00;5.10;99.90
59309;DHT22;48433;53.016;-2.260;2023-03-04T19:26:52;5.00;99.90
59309;DHT22;48433;53.016;-2.260;2023-03-04T19:29:20;5.00;99.90
59309;DHT22;48433;53.016;-2.260;2023-03-04T19:31:48;5.00;99.90
59309;DHT22;48433;53.016;-2.260;2023-03-04T19:34:16;5.00;99.90
59309;DHT22;48433;53.016;-2.260;2023-03-04T19:39:12;4.90;99.90
59309;DHT22;48433;53.016;-2.260;2023-03-04T19:44:10;4.90;99.90
59309;DHT22;48433;53.016;-2.260;2023-03-04T19:46:38;4.90;99.90
59309;DHT22;48433;53.016;-2.260;2023-03-04T19:49:07;4.90;99.90
59309;DHT22;48433;53.016;-2.260;2023-03-04T19:51:36;4.90;99.90
59309;DHT22;48433;53.016;-2.260;2023-03-04T19:54:04;4.90;99.90
59309;DHT22;48433;53.016;-2.260;2023-03-04T19:56:32;4.90;99.90
59309;DHT22;48433;53.016;-2.260;2023-03-04T19:59:00;4.90;99.90
59309;DHT22;48433;53.016;-2.260;2023-03-04T20:01:35;4.80;99.90
59309;DHT22;48433;53.016;-2.260;2023-03-04T20:04:14;4.80;99.90
59309;DHT22;48433;53.016;-2.260;2023-03-04T20:06:45;4.80;99.90
59309;DHT22;48433;53.016;-2.260;2023-03-04T20:09:14;4.80;99.90
59309;DHT22;48433;53.016;-2.260;2023-03-04T20:11:43;4.80;99.90
59309;DHT22;48433;53.016;-2.260;2023-03-04T20:14:25;4.80;99.90
59309;DHT22;48433;53.016;-2.260;2023-03-04T20:16:53;4.80;99.90
59309;DHT22;48433;53.016;-2.260;2023-03-04T20:19:21;4.80;99.90
59309;DHT22;48433;53.016;-2.260;2023-03-04T20:21:49;4.70;99.90
59309;DHT22;48433;53.016;-2.260;2023-03-04T20:24:17;4.70;99.90
59309;DHT22;48433;53.016;-2.260;2023-03-04T20:26:46;4.70;99.90
59309;DHT22;48433;53.016;-2.260;2023-03-04T20:29:14;4.70;99.90
59309;DHT22;48433;53.016;-2.260;2023-03-04T20:31:42;4.70;99.90
59309;DHT22;48433;53.016;-2.260;2023-03-04T20:34:11;4.70;99.90
59309;DHT22;48433;53.016;-2.260;2023-03-04T20:36:39;4.70;99.90
59309;DHT22;48433;53.016;-2.260;2023-03-04T20:39:08;4.60;99.90
59309;DHT22;48433;53.016;-2.260;2023-03-04T20:41:56;4.60;99.90
59309;DHT22;48433;53.016;-2.260;2023-03-04T20:44:24;4.60;99.90
59309;DHT22;48433;53.016;-2.260;2023-03-04T20:46:52;4.60;99.90
59309;DHT22;48433;53.016;-2.260;2023-03-04T20:49:22;4.50;99.90
59309;DHT22;48433;53.016;-2.260;2023-03-04T20:51:56;4.50;99.90
59309;DHT22;48433;53.016;-2.260;2023-03-04T20:54:25;4.50;99.90
59309;DHT22;48433;53.016;-2.260;2023-03-04T20:56:53;4.50;99.90
59309;DHT22;48433;53.016;-2.260;2023-03-04T20:59:21;4.50;99.90
59309;DHT22;48433;53.016;-2.260;2023-03-04T21:01:48;4.50;99.90
59309;DHT22;48433;53.016;-2.260;2023-03-04T21:04:17;4.50;99.90
59309;DHT22;48433;53.016;-2.260;2023-03-04T21:06:46;4.50;99.90
59309;DHT22;48433;53.016;-2.260;2023-03-04T21:09:16;4.40;99.90
59309;DHT22;48433;53.016;-2.260;2023-03-04T21:11:45;4.40;99.90
59309;DHT22;48433;53.016;-2.260;2023-03-04T21:14:16;4.40;99.90
59309;DHT22;48433;53.016;-2.260;2023-03-04T21:16:45;4.40;99.90
59309;DHT22;48433;53.016;-2.260;2023-03-04T21:19:31;4.40;99.90
59309;DHT22;48433;53.016;-2.260;2023-03-04T21:22:00;4.40;99.90
59309;DHT22;48433;53.016;-2.260;2023-03-04T21:24:30;4.40;99.90
59309;DHT22;48433;53.016;-2.260;2023-03-04T21:26:58;4.40;99.90
59309;DHT22;48433;53.016;-2.260;2023-03-04T21:29:28;4.40;99.90
59309;DHT22;48433;53.016;-2.260;2023-03-04T21:32:05;4.50;99.90
59309;DHT22;48433;53.016;-2.260;2023-03-04T21:34:51;4.50;99.90
59309;DHT22;48433;53.016;-2.260;2023-03-04T21:37:22;4.40;99.90
59309;DHT22;48433;53.016;-2.260;2023-03-04T21:39:50;4.50;99.90
59309;DHT22;48433;53.016;-2.260;2023-03-04T21:42:18;4.40;99.90
59309;DHT22;48433;53.016;-2.260;2023-03-04T21:47:18;4.40;99.90
59309;DHT22;48433;53.016;-2.260;2023-03-04T21:49:46;4.50;99.90
59309;DHT22;48433;53.016;-2.260;2023-03-04T21:52:13;4.50;99.90
59309;DHT22;48433;53.016;-2.260;2023-03-04T21:54:41;4.50;99.90
59309;DHT22;48433;53.016;-2.260;2023-03-04T21:57:09;4.40;99.90
59309;DHT22;48433;53.016;-2.260;2023-03-04T21:59:37;4.50;99.90
59309;DHT22;48433;53.016;-2.260;2023-03-04T22:02:08;4.40;99.90